Terminal Aerodrome Forecast
Issued by NWS

Home | Current Version | Previous Version | Text Only | Print | Product List | Glossary Off
Versions: 1 2 3 4 5 6 7 8 9 10 11 12 13 14 15 16 17 18 19 20 21 22 23 24 25 26 27 28 29 30 31 32 33 34 35 36 37 38 39 40 41 42 43 44

000
FTUS43 KGRB 171349 AAA
TAFRHI
TAF AMD
KRHI 171349Z 1714/1812 11005KT P6SM OVC006
      TEMPO 1714/1716 4SM BR OVC003
     FM171700 19004KT 5SM BR OVC009
     FM180100 VRB03KT 4SM BR OVC007
     FM180500 24005KT 3SM BR OVC005
      TEMPO 1808/1812 2SM BR OVC003=

USA.gov is the U.S. government's official web portal to all federal, state and local government web resources and services.